Time;durP1;ratioP1;P1;durP2;ratioP2;P2;SDS_P1;SDS_P2;PMS_P1;PMS_P2;Temp;Humidity;BMP_temperature;BMP_pressure;BME280_temperature;BME280_humidity;BME280_pressure;Samples;Min_cycle;Max_cycle;Signal;HPM_P1;HPM_P2
2022/10/23 04:31:36;;;;;;;3.10;1.00;;;18.30;74.20;;;;;;5397742;23;20055;-86
2022/10/23 04:34:01;;;;;;;2.90;1.08;;;18.30;74.40;;;;;;4978365;28;20027;-86
2022/10/23 04:36:27;;;;;;;2.22;1.23;;;18.30;74.40;;;;;;4959601;29;20059;-86
2022/10/23 04:38:52;;;;;;;2.10;0.93;;;18.30;74.50;;;;;;4960300;29;20038;-86
2022/10/23 04:41:18;;;;;;;5.70;1.52;;;18.30;74.50;;;;;;4959776;28;20078;-86
2022/10/23 04:43:44;;;;;;;1.88;0.90;;;18.30;74.40;;;;;;4960177;29;20093;-85
2022/10/23 04:46:09;;;;;;;2.72;0.82;;;18.30;74.50;;;;;;4960245;29;20081;-86
2022/10/23 04:48:40;;;;;;;4.20;0.93;;;18.30;74.50;;;;;;4960178;29;20117;-86
2022/10/23 04:51:06;;;;;;;1.23;0.88;;;18.30;74.40;;;;;;4959435;28;20027;-86
2022/10/23 04:53:32;;;;;;;1.45;0.88;;;18.30;74.40;;;;;;4975028;28;20041;-86
2022/10/23 04:55:58;;;;;;;2.63;1.50;;;18.30;74.50;;;;;;4958386;29;20497;-86
2022/10/23 04:58:26;;;;;;;1.50;0.95;;;18.30;74.60;;;;;;4966186;28;20073;-85
2022/10/23 05:00:52;;;;;;;2.08;1.15;;;18.30;74.60;;;;;;4977894;28;20066;-85
2022/10/23 05:03:18;;;;;;;2.00;1.08;;;18.30;74.50;;;;;;4984209;28;20029;-86
2022/10/23 05:05:47;;;;;;;2.80;1.10;;;18.30;74.60;;;;;;4977802;28;20397;-86
2022/10/23 05:08:13;;;;;;;2.63;0.90;;;18.30;74.50;;;;;;4978398;28;20031;-86
2022/10/23 05:10:40;;;;;;;2.72;1.25;;;18.30;74.50;;;;;;4977451;28;20027;-85
2022/10/23 05:13:06;;;;;;;2.90;1.20;;;18.30;74.40;;;;;;4978028;28;20123;-85
2022/10/23 05:15:31;;;;;;;3.00;1.15;;;18.40;74.50;;;;;;4976215;28;20521;-85
2022/10/23 05:18:03;;;;;;;4.78;1.35;;;18.30;74.60;;;;;;4959984;29;20042;-86
2022/10/23 05:20:32;;;;;;;3.15;1.08;;;18.30;74.70;;;;;;4972527;28;20656;-85
2022/10/23 05:23:01;;;;;;;2.83;1.10;;;18.30;74.70;;;;;;4975772;28;20468;-84
2022/10/23 05:25:29;;;;;;;1.67;0.82;;;18.30;74.80;;;;;;4958980;28;20038;-86
2022/10/23 05:27:55;;;;;;;3.42;1.08;;;18.30;74.90;;;;;;4959810;29;20020;-85
2022/10/23 05:30:21;;;;;;;1.55;1.13;;;18.30;75.00;;;;;;4959537;28;20035;-85
2022/10/23 05:32:46;;;;;;;4.20;1.30;;;18.30;74.90;;;;;;4959481;28;20049;-85
2022/10/23 05:35:17;;;;;;;2.53;0.95;;;18.30;75.00;;;;;;4974752;28;20027;-85
2022/10/23 05:37:45;;;;;;;5.63;1.08;;;18.30;74.90;;;;;;4958402;28;20027;-85
2022/10/23 05:40:12;;;;;;;1.88;0.95;;;18.30;75.10;;;;;;4959474;29;20367;-85
2022/10/23 05:42:37;;;;;;;2.67;1.10;;;18.30;75.20;;;;;;4959606;29;20470;-85
2022/10/23 05:45:04;;;;;;;3.38;1.05;;;18.30;75.00;;;;;;4959366;28;20047;-86
2022/10/23 05:47:30;;;;;;;1.67;0.90;;;18.30;74.80;;;;;;4974576;28;20081;-85
2022/10/23 05:49:56;;;;;;;3.47;1.10;;;18.30;74.90;;;;;;4976600;28;20027;-85
2022/10/23 05:52:22;;;;;;;2.95;1.30;;;18.30;74.90;;;;;;4976344;28;20030;-86
2022/10/23 05:54:50;;;;;;;2.30;1.40;;;18.30;75.00;;;;;;4977536;28;20031;-86
2022/10/23 05:57:16;;;;;;;1.58;1.08;;;18.30;75.10;;;;;;4973246;28;20037;-85
2022/10/23 05:59:41;;;;;;;2.33;1.08;;;18.20;75.40;;;;;;4959250;29;20397;-83
2022/10/23 06:02:07;;;;;;;3.38;1.25;;;18.20;75.70;;;;;;4959415;28;20031;-83
2022/10/23 06:04:34;;;;;;;2.60;0.90;;;18.10;75.80;;;;;;4961718;28;20109;-76
2022/10/23 06:07:00;;;;;;;1.70;1.00;;;18.10;75.50;;;;;;4977359;28;20051;-78
2022/10/23 06:09:26;;;;;;;4.28;1.17;;;18.10;75.70;;;;;;4976754;28;20019;-78
2022/10/23 06:11:52;;;;;;;2.70;1.13;;;18.10;75.90;;;;;;4976527;28;20082;-78
2022/10/23 06:14:17;;;;;;;2.83;0.95;;;18.20;75.90;;;;;;4960427;28;20043;-79
2022/10/23 06:16:43;;;;;;;3.83;1.25;;;18.20;76.10;;;;;;4958949;29;20031;-77
2022/10/23 06:19:12;;;;;;;2.47;1.08;;;18.20;76.20;;;;;;4959454;28;20110;-78
2022/10/23 06:21:38;;;;;;;6.78;1.77;;;18.20;76.00;;;;;;4969408;28;20030;-79
2022/10/23 06:24:05;;;;;;;2.10;1.40;;;18.20;76.10;;;;;;4958611;29;20024;-77
2022/10/23 06:26:31;;;;;;;2.05;1.05;;;18.20;76.20;;;;;;4963852;28;20026;-78
2022/10/23 06:28:57;;;;;;;3.63;1.25;;;18.20;76.50;;;;;;4976055;28;20081;-78
2022/10/23 06:31:27;;;;;;;3.58;1.20;;;18.10;76.30;;;;;;4973197;28;20054;-77
2022/10/23 06:33:56;;;;;;;2.30;1.30;;;18.20;76.20;;;;;;4972939;28;20489;-78
2022/10/23 06:36:23;;;;;;;3.88;1.52;;;18.10;76.10;;;;;;4970480;28;20034;-79
2022/10/23 06:38:48;;;;;;;2.88;1.17;;;18.10;76.10;;;;;;4973655;28;20440;-79
2022/10/23 06:41:21;;;;;;;4.85;1.58;;;18.10;76.20;;;;;;4971473;28;20077;-80
2022/10/23 06:43:49;;;;;;;3.60;1.23;;;18.10;76.20;;;;;;4970538;28;20073;-80
2022/10/23 06:46:16;;;;;;;2.22;0.93;;;18.00;76.50;;;;;;4972353;28;20042;-78
2022/10/23 06:48:42;;;;;;;5.10;1.48;;;18.00;76.60;;;;;;4971436;28;20027;-77
2022/10/23 06:51:10;;;;;;;3.10;1.73;;;17.90;76.70;;;;;;4974994;28;20035;-77
2022/10/23 06:53:46;;;;;;;;;;;;;;;;;;;;;
2022/10/23 06:56:12;;;;;;;6.80;2.78;;;17.90;76.70;;;;;;4972110;28;20031;-79
2022/10/23 06:58:39;;;;;;;3.60;1.52;;;17.90;76.80;;;;;;4975886;28;20050;-79
2022/10/23 07:01:07;;;;;;;3.03;1.60;;;17.90;76.70;;;;;;4970244;28;20055;-79
2022/10/23 07:03:33;;;;;;;2.47;1.08;;;17.90;76.80;;;;;;4974092;28;20393;-80
2022/10/23 07:06:05;;;;;;;4.43;1.52;;;18.00;76.70;;;;;;4967059;28;20031;-76
2022/10/23 07:08:30;;;;;;;2.10;1.10;;;17.90;76.80;;;;;;4976670;28;20057;-78
2022/10/23 07:10:56;;;;;;;3.17;1.35;;;17.90;76.90;;;;;;4969433;28;20062;-79
2022/10/23 07:52:10;;;;;;;5.22;2.20;;;16.50;84.10;;;;;;5118493;27;20440;-77
2022/10/23 07:54:35;;;;;;;5.55;1.83;;;16.60;83.90;;;;;;5095828;28;20465;-79
2022/10/23 07:57:01;;;;;;;5.30;1.85;;;16.90;83.30;;;;;;5097745;28;20033;-80
2022/10/23 07:59:27;;;;;;;2.40;1.60;;;17.20;82.70;;;;;;5089564;28;20017;-80
2022/10/23 08:01:55;;;;;;;3.78;1.73;;;17.40;82.00;;;;;;5092127;28;20024;-80
2022/10/23 08:04:21;;;;;;;3.15;1.80;;;17.70;81.20;;;;;;5087092;28;20130;-75
2022/10/23 08:06:47;;;;;;;3.15;1.92;;;17.80;80.60;;;;;;5093332;28;20044;-74
2022/10/23 08:09:13;;;;;;;6.60;1.73;;;18.00;80.10;;;;;;5091049;28;20052;-77
2022/10/23 08:11:39;;;;;;;6.00;2.45;;;18.10;79.40;;;;;;5084029;28;20082;-75
2022/10/23 08:14:07;;;;;;;4.88;2.03;;;18.30;79.00;;;;;;5090663;28;20024;-74
2022/10/23 08:16:34;;;;;;;4.95;1.83;;;18.30;78.60;;;;;;5088141;28;20043;-77
2022/10/23 08:19:01;;;;;;;2.72;1.40;;;18.40;78.30;;;;;;5097905;28;20028;-75
2022/10/23 08:21:27;;;;;;;3.70;1.52;;;18.40;78.20;;;;;;5099032;28;20032;-75
2022/10/23 08:23:58;;;;;;;6.03;2.10;;;18.40;78.10;;;;;;5107772;28;20583;-75
2022/10/23 08:26:25;;;;;;;2.25;1.48;;;18.50;78.10;;;;;;5091680;28;20050;-75
2022/10/23 08:28:51;;;;;;;5.38;1.90;;;18.50;78.00;;;;;;5094759;28;20490;-75
2022/10/23 08:31:19;;;;;;;3.17;1.40;;;18.50;78.20;;;;;;5095325;28;20071;-75
2022/10/23 08:33:45;;;;;;;6.25;2.45;;;18.40;78.20;;;;;;5099877;28;20028;-75
2022/10/23 08:36:20;;;;;;;4.22;2.05;;;18.40;78.50;;;;;;5101062;28;20039;-76
2022/10/23 08:38:48;;;;;;;6.05;1.75;;;18.40;78.30;;;;;;5099435;28;20044;-76
2022/10/23 08:41:22;;;;;;;3.83;1.88;;;18.30;78.90;;;;;;5097576;28;20493;-76
2022/10/23 08:43:54;;;;;;;4.20;1.83;;;18.30;79.00;;;;;;5095982;28;20028;-76
2022/10/23 08:46:27;;;;;;;5.03;2.30;;;18.20;79.20;;;;;;5082762;28;20036;-75
2022/10/23 08:49:03;;;;;;;3.60;1.75;;;18.10;79.50;;;;;;5089455;28;20149;-76
2022/10/23 08:51:40;;;;;;;7.03;2.40;;;18.20;79.50;;;;;;5097881;28;20132;-76
2022/10/23 08:54:48;;;;;;;4.05;2.10;;;18.10;79.80;;;;;;5096437;28;20031;-77
2022/10/23 08:57:16;;;;;;;6.05;2.10;;;18.20;79.90;;;;;;5095582;28;20031;-75
2022/10/23 08:59:47;;;;;;;6.35;2.22;;;18.30;79.60;;;;;;5102357;28;20493;-76
2022/10/23 09:02:27;;;;;;;3.92;2.05;;;18.40;79.50;;;;;;5096369;28;20020;-76
2022/10/23 09:04:55;;;;;;;5.40;2.13;;;18.70;78.90;;;;;;5092756;28;20062;-78
2022/10/23 09:07:31;;;;;;;4.88;2.10;;;18.80;78.50;;;;;;5061262;28;20164;-76
2022/10/23 09:10:12;;;;;;;9.90;2.53;;;19.00;78.30;;;;;;5064875;28;20027;-76
2022/10/23 09:12:38;;;;;;;6.75;2.35;;;19.00;78.40;;;;;;5057728;28;20067;-75
2022/10/23 09:15:23;;;;;;;7.07;2.53;;;19.00;78.30;;;;;;5056960;28;20049;-75
2022/10/23 09:17:58;;;;;;;5.55;2.15;;;19.00;78.40;;;;;;5076128;28;20024;-75
2022/10/23 09:20:33;;;;;;;4.90;2.33;;;19.10;78.40;;;;;;5074959;28;20039;-75
2022/10/23 09:23:13;;;;;;;8.23;2.45;;;19.20;78.20;;;;;;5078426;28;20860;-75
2022/10/23 09:25:41;;;;;;;4.25;2.08;;;19.20;78.30;;;;;;5062935;28;20044;-75
2022/10/23 09:28:18;;;;;;;10.50;2.20;;;19.20;78.40;;;;;;5073482;28;20040;-74
2022/10/23 09:30:44;;;;;;;10.85;2.58;;;19.20;78.60;;;;;;5057466;28;20094;-75
2022/10/23 09:33:13;;;;;;;8.15;2.80;;;19.30;78.50;;;;;;5072864;28;20033;-75
2022/10/23 09:35:50;;;;;;;5.95;2.30;;;19.30;78.60;;;;;;5057564;28;20087;-75
2022/10/23 09:38:26;;;;;;;7.55;2.28;;;19.40;78.50;;;;;;5057737;28;20104;-76
2022/10/23 09:40:52;;;;;;;10.63;2.35;;;19.40;78.60;;;;;;5072734;28;20028;-76
2022/10/23 09:43:24;;;;;;;9.63;2.53;;;19.50;78.50;;;;;;5073297;28;20028;-75
2022/10/23 09:45:58;;;;;;;8.27;2.30;;;19.50;78.90;;;;;;5057556;28;20530;-77
2022/10/23 09:48:24;;;;;;;8.18;2.28;;;19.60;78.60;;;;;;5066871;28;20035;-75
2022/10/23 09:50:56;;;;;;;5.57;1.90;;;19.60;78.60;;;;;;5084948;28;20052;-76
2022/10/23 09:53:25;;;;;;;8.00;2.40;;;19.70;78.80;;;;;;5080958;28;20025;-76
2022/10/23 09:55:56;;;;;;;7.97;2.43;;;19.70;78.40;;;;;;5086555;28;20501;-77
2022/10/23 09:58:38;;;;;;;9.10;2.78;;;19.80;78.40;;;;;;5088260;28;20027;-78
2022/10/23 10:01:04;;;;;;;10.48;2.42;;;19.80;78.50;;;;;;5081807;28;20036;-77
2022/10/23 10:03:30;;;;;;;7.93;1.98;;;19.80;78.50;;;;;;5078597;28;20031;-77
2022/10/23 10:06:00;;;;;;;4.25;1.80;;;19.80;78.30;;;;;;5084151;28;20032;-80
2022/10/23 10:08:43;;;;;;;8.80;2.20;;;19.90;78.50;;;;;;5083997;28;20024;-78
2022/10/23 10:11:40;;;;;;;9.15;1.90;;;20.00;77.90;;;;;;5082803;28;20401;-77
2022/10/23 10:14:34;;;;;;;9.68;2.83;;;20.00;77.60;;;;;;5080618;28;20052;-78
2022/10/23 10:17:04;;;;;;;5.72;1.90;;;20.00;77.60;;;;;;5079303;28;20119;-78
2022/10/23 10:20:02;;;;;;;5.90;1.50;;;20.00;77.40;;;;;;5083855;28;20016;-78
2022/10/23 10:22:34;;;;;;;5.95;1.50;;;20.00;77.60;;;;;;5081635;28;20036;-80
2022/10/23 10:25:08;;;;;;;9.77;2.00;;;20.00;77.00;;;;;;5087448;28;20058;-79
2022/10/23 10:27:55;;;;;;;9.75;1.95;;;20.10;76.90;;;;;;5041372;28;20684;-80
2022/10/23 10:30:23;;;;;;;9.10;2.00;;;20.20;76.80;;;;;;5084050;28;20028;-79
2022/10/23 10:33:20;;;;;;;10.93;1.95;;;20.30;76.70;;;;;;5081474;28;20024;-78
2022/10/23 10:35:55;;;;;;;8.20;1.55;;;20.30;76.50;;;;;;5079059;28;20523;-78
2022/10/23 10:38:30;;;;;;;11.85;2.17;;;20.30;75.70;;;;;;5078876;28;20020;-79
2022/10/23 10:41:35;;;;;;;7.32;1.98;;;20.30;76.10;;;;;;5083357;28;20016;-78
2022/10/23 10:44:13;;;;;;;3.83;1.60;;;20.40;75.70;;;;;;5079546;28;20566;-79
2022/10/23 10:47:09;;;;;;;5.20;1.70;;;20.60;75.30;;;;;;5087538;28;20024;-78
2022/10/23 10:49:45;;;;;;;8.77;2.55;;;20.70;74.90;;;;;;5083866;28;20020;-81
2022/10/23 10:52:24;;;;;;;8.32;1.50;;;20.70;75.30;;;;;;5085383;28;20040;-84
2022/10/23 10:54:50;;;;;;;13.98;1.70;;;20.80;75.00;;;;;;5094464;28;20028;-82
2022/10/23 10:57:33;;;;;;;7.13;1.60;;;20.80;74.60;;;;;;5080946;28;20031;-81
2022/10/23 11:00:12;;;;;;;6.63;1.42;;;20.80;75.50;;;;;;5097612;28;20406;-80
2022/10/23 11:03:35;;;;;;;7.18;1.75;;;20.80;74.80;;;;;;5096943;28;20474;-85
2022/10/23 11:06:03;;;;;;;6.68;1.88;;;20.90;74.00;;;;;;5067572;28;20501;-88
2022/10/23 11:08:38;;;;;;;9.55;2.35;;;21.10;74.20;;;;;;5074272;28;20049;-84
2022/10/23 11:11:33;;;;;;;8.00;2.33;;;21.20;73.90;;;;;;5072368;28;20033;-86
2022/10/23 11:13:59;;;;;;;6.53;1.38;;;21.30;73.40;;;;;;5078376;28;20585;-82
2022/10/23 11:16:28;;;;;;;2.28;0.98;;;21.30;72.50;;;;;;5069541;28;20055;-83
2022/10/23 11:19:11;;;;;;;6.07;0.88;;;21.30;71.00;;;;;;5055872;28;20029;-89
2022/10/23 11:22:15;;;;;;;5.72;0.93;;;21.50;70.70;;;;;;5056084;28;20025;-88
2022/10/23 11:25:02;;;;;;;7.68;1.88;;;21.50;69.50;;;;;;5069169;28;20024;-83
2022/10/23 11:27:31;;;;;;;5.05;1.20;;;21.50;69.00;;;;;;5095121;28;20039;-88
2022/10/23 11:30:30;;;;;;;8.00;1.08;;;21.50;68.90;;;;;;5076279;28;20020;-89
2022/10/23 11:33:13;;;;;;;5.13;0.85;;;21.30;69.30;;;;;;5054991;28;20036;-89
2022/10/23 11:36:15;;;;;;;4.85;0.90;;;21.30;68.30;;;;;;5055278;28;20032;-91
2022/10/23 11:38:44;;;;;;;4.28;1.33;;;21.30;68.20;;;;;;5059182;28;20082;-89
2022/10/23 11:41:21;;;;;;;3.75;1.33;;;21.40;67.70;;;;;;5074060;28;20025;-81
2022/10/23 11:44:02;;;;;;;6.25;1.23;;;21.50;68.40;;;;;;5073567;28;20032;-86
2022/10/23 11:46:34;;;;;;;6.95;1.38;;;21.60;68.20;;;;;;5069243;28;20025;-81
2022/10/23 11:49:02;;;;;;;6.50;1.05;;;21.70;66.80;;;;;;5055260;28;20031;-80
2022/10/23 11:51:27;;;;;;;5.50;0.73;;;21.70;66.30;;;;;;5054594;28;20051;-83
2022/10/23 11:54:25;;;;;;;4.05;1.00;;;21.80;65.60;;;;;;5073403;28;20092;-82
2022/10/23 11:57:06;;;;;;;6.03;1.00;;;21.70;63.70;;;;;;5072788;28;20474;-83
2022/10/23 11:59:47;;;;;;;5.40;1.20;;;21.70;63.30;;;;;;5071187;28;20042;-83
2022/10/23 12:02:30;;;;;;;6.15;0.90;;;21.50;63.90;;;;;;5069942;28;20043;-84
2022/10/23 12:05:00;;;;;;;7.50;1.20;;;21.50;65.00;;;;;;5064938;28;20245;-85
2022/10/23 12:07:28;;;;;;;;;;;21.40;65.20;;;;;;5073825;28;20080;-84
2022/10/23 12:10:00;;;;;;;5.57;1.05;;;21.30;65.30;;;;;;5072872;28;20023;-81
2022/10/23 12:12:29;;;;;;;4.60;0.95;;;21.40;67.20;;;;;;5071851;28;20020;-82
2022/10/23 12:15:08;;;;;;;6.43;0.90;;;21.30;67.20;;;;;;5071621;28;20020;-83
2022/10/23 12:17:36;;;;;;;3.75;1.45;;;21.20;67.80;;;;;;5071298;28;20017;-83
2022/10/23 12:20:11;;;;;;;6.53;1.00;;;21.20;67.20;;;;;;5071926;28;20088;-79
2022/10/23 12:22:43;;;;;;;8.40;1.33;;;21.10;67.30;;;;;;5073013;28;20100;-86
2022/10/23 12:25:21;;;;;;;8.13;1.08;;;21.00;68.70;;;;;;5072010;28;20032;-81
2022/10/23 12:28:26;;;;;;;6.43;1.40;;;20.90;69.70;;;;;;5083644;28;20020;-80
2022/10/23 12:31:09;;;;;;;8.18;1.60;;;20.80;70.50;;;;;;5085568;28;20032;-86
2022/10/23 12:34:00;;;;;;;5.53;0.80;;;20.70;69.40;;;;;;5072083;28;20710;-78
2022/10/23 12:36:32;;;;;;;8.50;1.30;;;20.60;69.90;;;;;;5085069;28;20032;-81
2022/10/23 12:38:57;;;;;;;6.40;0.88;;;20.70;70.10;;;;;;5088400;28;20020;-81
2022/10/23 12:41:26;;;;;;;9.23;1.35;;;20.70;70.50;;;;;;5086153;28;20035;-77
2022/10/23 12:44:03;;;;;;;9.18;1.33;;;20.70;70.80;;;;;;5083492;28;20020;-79
2022/10/23 12:46:47;;;;;;;7.10;1.38;;;20.70;71.20;;;;;;5089420;28;20016;-78
2022/10/23 12:49:17;;;;;;;6.70;1.08;;;20.80;70.90;;;;;;5072972;28;20029;-77
2022/10/23 12:51:43;;;;;;;3.15;0.63;;;21.10;70.40;;;;;;5098000;28;20123;-78
2022/10/23 12:54:17;;;;;;;5.47;0.82;;;21.20;68.90;;;;;;5084564;28;20520;-78
2022/10/23 12:56:44;;;;;;;1.95;0.90;;;21.20;63.60;;;;;;5086110;28;20095;-79
2022/10/23 12:59:26;;;;;;;5.20;0.52;;;21.10;61.00;;;;;;5068014;28;20027;-81
2022/10/23 13:01:54;;;;;;;3.80;0.75;;;21.10;61.00;;;;;;5074326;28;20024;-80
2022/10/23 13:04:32;;;;;;;5.53;1.05;;;21.00;61.10;;;;;;5086510;28;20020;-80
2022/10/23 13:07:00;;;;;;;4.55;0.65;;;21.00;59.60;;;;;;5080127;28;20024;-80
2022/10/23 13:09:36;;;;;;;2.38;0.45;;;21.00;60.10;;;;;;5098079;28;20027;-81
2022/10/23 13:12:05;;;;;;;3.28;0.57;;;21.00;59.70;;;;;;5061303;28;20033;-80
2022/10/23 13:14:33;;;;;;;1.52;0.57;;;21.00;58.40;;;;;;5057800;28;20028;-80
2022/10/23 13:17:07;;;;;;;2.97;0.73;;;21.10;59.10;;;;;;5071783;28;20044;-80
2022/10/23 13:19:34;;;;;;;2.20;0.50;;;21.10;59.00;;;;;;5063983;28;20017;-81
2022/10/23 13:22:02;;;;;;;2.33;0.75;;;21.20;57.80;;;;;;5067451;28;20070;-81
2022/10/23 13:24:29;;;;;;;1.75;0.57;;;21.20;57.70;;;;;;5076007;28;20013;-81
2022/10/23 13:26:56;;;;;;;4.18;0.88;;;21.10;56.50;;;;;;5082029;28;20028;-80
2022/10/23 13:29:32;;;;;;;4.15;0.52;;;21.10;56.70;;;;;;5082235;28;20065;-80
2022/10/23 13:32:12;;;;;;;3.28;0.45;;;21.10;55.70;;;;;;5071407;28;20895;-80
2022/10/23 13:34:37;;;;;;;6.72;0.77;;;21.10;55.50;;;;;;5064142;28;20043;-81
2022/10/23 13:37:22;;;;;;;3.97;0.50;;;21.10;54.80;;;;;;5074916;28;20064;-80
2022/10/23 13:39:59;;;;;;;2.13;0.93;;;21.10;53.70;;;;;;5075475;28;20154;-80
2022/10/23 13:42:25;;;;;;;3.97;0.63;;;21.00;54.50;;;;;;5075418;28;20165;-80
2022/10/23 13:44:51;;;;;;;1.98;0.50;;;21.10;53.70;;;;;;5087956;28;20051;-80
2022/10/23 13:47:16;;;;;;;4.20;0.60;;;21.10;55.00;;;;;;5082665;28;20017;-81
2022/10/23 13:49:42;;;;;;;4.57;0.40;;;21.10;54.30;;;;;;5081213;28;20101;-81
2022/10/23 13:52:11;;;;;;;2.13;0.80;;;21.10;53.60;;;;;;5084456;28;20526;-80
2022/10/23 13:54:37;;;;;;;2.13;0.70;;;21.10;53.10;;;;;;5086541;28;20044;-82
2022/10/23 13:57:03;;;;;;;1.05;0.40;;;21.00;53.10;;;;;;5082455;28;20522;-81
2022/10/23 13:59:29;;;;;;;3.50;0.60;;;21.00;53.90;;;;;;5086828;28;20093;-82
2022/10/23 14:01:55;;;;;;;2.97;0.77;;;21.10;53.50;;;;;;5085424;28;20017;-80
2022/10/23 14:04:20;;;;;;;2.00;0.47;;;21.00;53.80;;;;;;5083991;28;20028;-81
2022/10/23 14:06:46;;;;;;;3.53;0.63;;;21.00;54.20;;;;;;5057194;28;20154;-80
2022/10/23 14:09:14;;;;;;;3.63;0.80;;;21.10;54.20;;;;;;5076290;28;20495;-80
2022/10/23 14:11:41;;;;;;;0.63;0.30;;;21.10;53.70;;;;;;5070466;28;20471;-80
2022/10/23 14:14:06;;;;;;;3.38;0.38;;;21.10;52.90;;;;;;5088105;28;20137;-80
2022/10/23 14:16:32;;;;;;;3.95;0.80;;;21.00;54.20;;;;;;5076500;28;20032;-79
2022/10/23 14:18:58;;;;;;;5.45;0.50;;;21.10;54.30;;;;;;5084172;28;20032;-80
2022/10/23 14:21:25;;;;;;;4.75;0.90;;;21.10;54.70;;;;;;5069121;28;20166;-80
2022/10/23 14:23:52;;;;;;;0.57;0.30;;;21.20;53.60;;;;;;5083030;28;20037;-80
2022/10/23 14:26:21;;;;;;;4.00;1.08;;;21.10;53.40;;;;;;5074956;28;20032;-80
2022/10/23 14:28:46;;;;;;;2.38;0.55;;;21.00;54.20;;;;;;5078549;28;20074;-80
2022/10/23 14:31:15;;;;;;;9.48;2.10;;;20.90;53.80;;;;;;5076121;28;20032;-79
2022/10/23 14:33:42;;;;;;;2.92;0.50;;;20.80;53.50;;;;;;5075237;28;20124;-79
2022/10/23 14:36:08;;;;;;;3.72;0.50;;;20.70;54.00;;;;;;5072421;28;20032;-80
2022/10/23 14:38:33;;;;;;;6.63;0.85;;;20.60;54.50;;;;;;5071321;28;20028;-78
2022/10/23 14:40:59;;;;;;;1.50;0.28;;;20.50;54.40;;;;;;5066501;28;20115;-77
2022/10/23 14:43:25;;;;;;;3.38;0.40;;;20.70;55.40;;;;;;5080234;28;20029;-78
2022/10/23 14:45:51;;;;;;;4.22;0.52;;;20.80;55.20;;;;;;5074616;28;20028;-77
2022/10/23 14:48:16;;;;;;;5.70;0.60;;;20.80;54.90;;;;;;5067557;28;20028;-78
2022/10/23 14:50:44;;;;;;;3.85;0.80;;;20.90;55.20;;;;;;5077177;28;20096;-78
2022/10/23 14:53:10;;;;;;;4.43;0.50;;;20.80;54.60;;;;;;5085496;28;20062;-79
2022/10/23 14:55:36;;;;;;;1.23;0.57;;;20.80;55.10;;;;;;5081640;28;20120;-78
2022/10/23 14:58:02;;;;;;;2.60;0.60;;;20.80;55.30;;;;;;5084815;28;20165;-78
2022/10/23 15:00:28;;;;;;;2.10;0.60;;;20.90;55.60;;;;;;5081692;28;20024;-78
2022/10/23 15:02:53;;;;;;;2.78;0.60;;;20.80;55.30;;;;;;5073010;28;20032;-77
2022/10/23 15:05:19;;;;;;;4.22;0.70;;;20.80;55.70;;;;;;5075090;28;20028;-80
2022/10/23 15:07:45;;;;;;;3.00;0.50;;;20.80;55.70;;;;;;5075353;28;20040;-79
2022/10/23 15:10:10;;;;;;;5.05;0.85;;;20.80;55.00;;;;;;5060077;28;20581;-85
2022/10/23 15:12:37;;;;;;;1.25;0.43;;;20.80;55.00;;;;;;5095909;28;20063;-83
2022/10/23 15:15:05;;;;;;;28.95;1.75;;;20.80;54.90;;;;;;5096061;28;20070;-83
2022/10/23 15:17:32;;;;;;;2.10;0.63;;;20.80;56.10;;;;;;5084459;28;20020;-77
2022/10/23 15:20:01;;;;;;;9.55;1.10;;;20.80;56.60;;;;;;5079941;28;20019;-80
2022/10/23 15:22:27;;;;;;;5.93;0.57;;;20.80;55.80;;;;;;5076094;28;20032;-79
2022/10/23 15:24:52;;;;;;;3.95;0.75;;;20.80;56.10;;;;;;5080223;28;20032;-79
2022/10/23 15:27:18;;;;;;;5.57;0.75;;;20.50;57.10;;;;;;5083705;28;20020;-79
2022/10/23 15:29:44;;;;;;;3.00;0.55;;;20.40;57.30;;;;;;5085034;28;20035;-78
2022/10/23 15:32:11;;;;;;;2.03;0.43;;;20.30;58.00;;;;;;5085208;28;20036;-79
2022/10/23 15:34:38;;;;;;;4.75;0.68;;;20.30;57.90;;;;;;5082693;28;20020;-79
2022/10/23 15:37:04;;;;;;;2.50;0.80;;;20.20;58.90;;;;;;5081384;28;20464;-79
2022/10/23 15:39:32;;;;;;;4.88;1.00;;;20.00;59.60;;;;;;5084061;28;20058;-79
2022/10/23 15:41:59;;;;;;;5.50;1.13;;;20.00;60.00;;;;;;5074617;28;20070;-79
2022/10/23 15:44:27;;;;;;;4.00;0.70;;;19.90;60.80;;;;;;5080532;28;20028;-79
2022/10/23 15:46:52;;;;;;;2.92;0.50;;;19.90;61.10;;;;;;5093368;28;20024;-79
2022/10/23 15:49:19;;;;;;;5.32;0.82;;;20.00;61.00;;;;;;5083313;28;20103;-79
2022/10/23 15:51:45;;;;;;;7.93;1.10;;;19.90;60.90;;;;;;5083116;28;20078;-78
2022/10/23 15:54:17;;;;;;;4.93;1.10;;;19.80;61.00;;;;;;5085670;28;20035;-79
2022/10/23 15:56:48;;;;;;;7.85;1.05;;;19.80;61.80;;;;;;5082663;28;20021;-79
2022/10/23 15:59:14;;;;;;;4.05;0.68;;;19.70;61.60;;;;;;5084756;28;20795;-79
2022/10/23 16:01:40;;;;;;;9.77;1.60;;;19.70;62.50;;;;;;5079451;28;20378;-79
2022/10/23 16:04:06;;;;;;;3.88;0.75;;;19.80;62.50;;;;;;5083374;28;20025;-79
2022/10/23 16:06:31;;;;;;;5.82;0.80;;;19.80;62.60;;;;;;5053284;28;20017;-79
2022/10/23 16:08:57;;;;;;;4.38;0.60;;;19.60;62.60;;;;;;5070319;28;20781;-79
2022/10/23 16:11:27;;;;;;;4.43;0.63;;;19.40;64.00;;;;;;5078042;28;20036;-79
2022/10/23 16:13:57;;;;;;;2.13;0.50;;;19.40;64.00;;;;;;5072837;28;20102;-79
2022/10/23 16:16:23;;;;;;;3.40;0.57;;;19.20;65.00;;;;;;5081521;28;20031;-79
2022/10/23 16:18:49;;;;;;;4.60;0.82;;;19.20;65.30;;;;;;5078405;28;20398;-79
2022/10/23 16:21:24;;;;;;;2.15;0.55;;;19.20;65.60;;;;;;5067918;28;20028;-79
2022/10/23 16:23:52;;;;;;;2.53;0.82;;;19.00;66.30;;;;;;5071508;28;20037;-79
2022/10/23 16:26:18;;;;;;;4.32;0.85;;;18.90;67.00;;;;;;5077836;28;20028;-79
2022/10/23 16:28:44;;;;;;;1.90;0.57;;;18.90;67.10;;;;;;5078635;28;20561;-79
2022/10/23 16:31:18;;;;;;;4.07;1.15;;;18.90;67.60;;;;;;5078268;28;20099;-79
2022/10/23 16:33:45;;;;;;;0.98;0.35;;;18.90;67.60;;;;;;5069282;28;20255;-78
2022/10/23 16:36:10;;;;;;;5.82;0.75;;;18.80;67.70;;;;;;5074019;28;20039;-79
2022/10/23 16:38:36;;;;;;;3.97;0.70;;;18.80;67.60;;;;;;5090254;28;20028;-79
2022/10/23 16:41:03;;;;;;;5.40;0.73;;;18.80;68.00;;;;;;5076555;28;20041;-79
2022/10/23 16:43:29;;;;;;;5.95;0.98;;;18.80;67.50;;;;;;5075684;28;20020;-79
2022/10/23 16:46:03;;;;;;;2.55;0.60;;;18.80;67.70;;;;;;5071452;28;20097;-79
2022/10/23 16:48:30;;;;;;;4.53;0.60;;;18.80;67.60;;;;;;5064620;28;20056;-79
2022/10/23 16:50:56;;;;;;;2.20;0.60;;;18.80;68.00;;;;;;5075394;28;20076;-79
2022/10/23 16:53:23;;;;;;;6.13;0.70;;;18.60;68.70;;;;;;5090266;28;20035;-79
2022/10/23 16:55:49;;;;;;;1.65;0.50;;;18.70;68.90;;;;;;5084629;28;20021;-79
2022/10/23 16:58:14;;;;;;;3.20;0.70;;;18.70;69.00;;;;;;5090917;28;20093;-80
2022/10/23 17:00:40;;;;;;;3.42;0.85;;;18.70;68.50;;;;;;5096700;28;20096;-79
2022/10/23 17:03:05;;;;;;;3.13;0.85;;;18.60;68.80;;;;;;5078415;28;20458;-79
2022/10/23 17:05:33;;;;;;;8.48;0.85;;;18.60;68.70;;;;;;5079494;28;20717;-80
2022/10/23 17:07:59;;;;;;;3.45;1.00;;;18.60;69.20;;;;;;5080040;28;20416;-80
2022/10/23 17:10:25;;;;;;;6.13;0.85;;;18.60;69.10;;;;;;5077954;28;20060;-79
2022/10/23 17:12:50;;;;;;;3.08;0.73;;;18.60;69.10;;;;;;5077958;28;20055;-78
2022/10/23 17:15:17;;;;;;;3.05;0.73;;;18.60;69.10;;;;;;5078694;28;20513;-78
2022/10/23 17:17:42;;;;;;;11.10;1.23;;;18.50;69.20;;;;;;5078329;28;20028;-78
2022/10/23 17:20:09;;;;;;;8.05;1.15;;;18.50;69.50;;;;;;5077309;28;20040;-78
2022/10/23 17:22:36;;;;;;;2.47;0.47;;;18.50;69.90;;;;;;5073909;28;20029;-79
2022/10/23 17:25:02;;;;;;;2.38;0.60;;;18.50;70.50;;;;;;5061565;28;20036;-78
2022/10/23 17:27:28;;;;;;;6.53;0.75;;;18.40;71.10;;;;;;5082753;28;20040;-78
2022/10/23 17:29:53;;;;;;;6.20;1.42;;;18.30;71.70;;;;;;5091098;28;20023;-78
2022/10/23 17:32:21;;;;;;;6.38;0.98;;;18.30;72.40;;;;;;5081725;28;20521;-77
2022/10/23 17:34:47;;;;;;;4.65;1.08;;;18.30;72.90;;;;;;5071407;28;20052;-78
2022/10/23 17:37:13;;;;;;;7.03;1.30;;;18.30;73.00;;;;;;5067439;28;20021;-77
2022/10/23 17:39:40;;;;;;;5.38;1.02;;;18.20;73.00;;;;;;5079344;28;20037;-80
2022/10/23 17:42:06;;;;;;;3.00;0.80;;;18.20;73.10;;;;;;5090983;28;20036;-76
2022/10/23 17:44:31;;;;;;;4.30;0.50;;;18.20;73.30;;;;;;5073802;28;20076;-79
2022/10/23 17:46:57;;;;;;;4.07;0.95;;;18.20;73.20;;;;;;5075770;28;20040;-79
2022/10/23 17:49:26;;;;;;;3.03;0.82;;;18.10;73.70;;;;;;5077188;28;20028;-82
2022/10/23 17:51:55;;;;;;;11.27;1.17;;;18.00;73.90;;;;;;5079805;28;20048;-81
2022/10/23 17:54:22;;;;;;;4.97;1.02;;;18.00;74.20;;;;;;5075417;28;20035;-80
2022/10/23 17:56:47;;;;;;;5.90;0.80;;;18.00;74.60;;;;;;5060801;28;20021;-79
2022/10/23 17:59:15;;;;;;;5.25;1.25;;;18.00;74.70;;;;;;5058489;28;20025;-81
2022/10/23 18:01:45;;;;;;;2.03;0.90;;;17.90;75.50;;;;;;5073067;28;20029;-80
2022/10/23 18:04:11;;;;;;;5.90;1.20;;;17.90;76.20;;;;;;5062438;28;20024;-79
2022/10/23 18:06:43;;;;;;;5.15;1.20;;;17.90;76.70;;;;;;5058050;28;20023;-82
2022/10/23 18:09:10;;;;;;;7.60;1.20;;;17.90;78.00;;;;;;5077751;28;20557;-82
2022/10/23 18:11:52;;;;;;;;;;;;;;;;;;;;;
2022/10/23 18:14:20;;;;;;;7.10;1.27;;;17.70;79.80;;;;;;5064981;28;20129;-81